sensor_id;sensor_type;location;lat;lon;timestamp;temperature;humidity
9810;DHT22;4944;52.514;13.192;2022-08-19T00:00:29;25.20;99.90
9810;DHT22;4944;52.514;13.192;2022-08-19T00:02:56;25.10;99.90
9810;DHT22;4944;52.514;13.192;2022-08-19T00:05:23;25.10;99.90
9810;DHT22;4944;52.514;13.192;2022-08-19T00:07:50;25.20;99.90
9810;DHT22;4944;52.514;13.192;2022-08-19T00:10:19;25.20;99.90
9810;DHT22;4944;52.514;13.192;2022-08-19T00:12:46;25.20;99.90
9810;DHT22;4944;52.514;13.192;2022-08-19T00:15:15;25.20;99.90
9810;DHT22;4944;52.514;13.192;2022-08-19T00:17:44;25.10;99.90
9810;DHT22;4944;52.514;13.192;2022-08-19T00:20:12;25.10;99.90
9810;DHT22;4944;52.514;13.192;2022-08-19T00:22:42;25.10;99.90
9810;DHT22;4944;52.514;13.192;2022-08-19T00:25:09;25.10;99.90
9810;DHT22;4944;52.514;13.192;2022-08-19T00:27:37;25.10;99.90
9810;DHT22;4944;52.514;13.192;2022-08-19T00:30:05;25.10;99.90
9810;DHT22;4944;52.514;13.192;2022-08-19T00:32:32;25.10;99.90
9810;DHT22;4944;52.514;13.192;2022-08-19T00:35:01;25.10;99.90
9810;DHT22;4944;52.514;13.192;2022-08-19T00:37:29;25.00;99.90
9810;DHT22;4944;52.514;13.192;2022-08-19T00:39:56;25.00;99.90
9810;DHT22;4944;52.514;13.192;2022-08-19T00:42:22;25.00;99.90
9810;DHT22;4944;52.514;13.192;2022-08-19T00:44:53;25.00;99.90
9810;DHT22;4944;52.514;13.192;2022-08-19T00:47:20;24.90;99.90
9810;DHT22;4944;52.514;13.192;2022-08-19T00:49:49;24.90;99.90
9810;DHT22;4944;52.514;13.192;2022-08-19T00:52:21;24.70;99.90
9810;DHT22;4944;52.514;13.192;2022-08-19T00:54:49;24.70;99.90
9810;DHT22;4944;52.514;13.192;2022-08-19T00:57:20;24.60;99.90
9810;DHT22;4944;52.514;13.192;2022-08-19T00:59:52;24.60;99.90
9810;DHT22;4944;52.514;13.192;2022-08-19T01:02:19;24.60;99.90
9810;DHT22;4944;52.514;13.192;2022-08-19T01:04:46;24.70;99.90
9810;DHT22;4944;52.514;13.192;2022-08-19T01:07:13;24.70;99.90
9810;DHT22;4944;52.514;13.192;2022-08-19T01:09:41;24.80;99.90
9810;DHT22;4944;52.514;13.192;2022-08-19T01:12:09;24.80;99.90
9810;DHT22;4944;52.514;13.192;2022-08-19T01:14:37;24.80;99.90
9810;DHT22;4944;52.514;13.192;2022-08-19T01:17:06;24.80;99.90
9810;DHT22;4944;52.514;13.192;2022-08-19T01:19:36;24.80;99.90
9810;DHT22;4944;52.514;13.192;2022-08-19T01:22:07;24.80;99.90
9810;DHT22;4944;52.514;13.192;2022-08-19T01:24:36;24.80;99.90
9810;DHT22;4944;52.514;13.192;2022-08-19T01:27:03;24.80;99.90
9810;DHT22;4944;52.514;13.192;2022-08-19T01:29:31;24.80;99.90
9810;DHT22;4944;52.514;13.192;2022-08-19T01:31:58;24.80;99.90
9810;DHT22;4944;52.514;13.192;2022-08-19T01:34:25;24.80;99.90
9810;DHT22;4944;52.514;13.192;2022-08-19T01:36:52;24.80;99.90
9810;DHT22;4944;52.514;13.192;2022-08-19T01:39:21;24.80;99.90
9810;DHT22;4944;52.514;13.192;2022-08-19T01:41:50;24.80;99.90
9810;DHT22;4944;52.514;13.192;2022-08-19T01:44:17;24.80;99.90
9810;DHT22;4944;52.514;13.192;2022-08-19T01:46:47;24.80;99.90
9810;DHT22;4944;52.514;13.192;2022-08-19T01:49:14;24.80;99.90
9810;DHT22;4944;52.514;13.192;2022-08-19T01:51:41;24.80;99.90
9810;DHT22;4944;52.514;13.192;2022-08-19T01:54:09;24.70;99.90
9810;DHT22;4944;52.514;13.192;2022-08-19T01:56:36;24.60;99.90
9810;DHT22;4944;52.514;13.192;2022-08-19T01:59:09;24.60;99.90
9810;DHT22;4944;52.514;13.192;2022-08-19T02:01:37;24.60;99.90
9810;DHT22;4944;52.514;13.192;2022-08-19T02:04:04;24.60;99.90
9810;DHT22;4944;52.514;13.192;2022-08-19T02:06:31;24.60;99.90
9810;DHT22;4944;52.514;13.192;2022-08-19T02:08:58;24.60;99.90
9810;DHT22;4944;52.514;13.192;2022-08-19T02:11:27;24.60;99.90
9810;DHT22;4944;52.514;13.192;2022-08-19T02:13:57;24.60;99.90
9810;DHT22;4944;52.514;13.192;2022-08-19T02:16:26;24.60;99.90
9810;DHT22;4944;52.514;13.192;2022-08-19T02:18:52;24.60;99.90
9810;DHT22;4944;52.514;13.192;2022-08-19T02:21:21;24.50;99.90
9810;DHT22;4944;52.514;13.192;2022-08-19T02:23:49;24.50;99.90
9810;DHT22;4944;52.514;13.192;2022-08-19T02:26:16;24.40;99.90
9810;DHT22;4944;52.514;13.192;2022-08-19T02:28:44;24.40;99.90
9810;DHT22;4944;52.514;13.192;2022-08-19T02:31:11;24.40;99.90
9810;DHT22;4944;52.514;13.192;2022-08-19T02:33:41;24.40;99.90
9810;DHT22;4944;52.514;13.192;2022-08-19T02:36:11;24.30;99.90
9810;DHT22;4944;52.514;13.192;2022-08-19T02:38:38;24.30;99.90
9810;DHT22;4944;52.514;13.192;2022-08-19T02:41:10;24.30;99.90
9810;DHT22;4944;52.514;13.192;2022-08-19T02:43:38;24.20;99.90
9810;DHT22;4944;52.514;13.192;2022-08-19T02:46:12;24.20;99.90
9810;DHT22;4944;52.514;13.192;2022-08-19T02:48:40;24.10;99.90
9810;DHT22;4944;52.514;13.192;2022-08-19T02:51:07;24.10;99.90
9810;DHT22;4944;52.514;13.192;2022-08-19T02:53:34;24.20;99.90
9810;DHT22;4944;52.514;13.192;2022-08-19T02:56:00;24.10;99.90
9810;DHT22;4944;52.514;13.192;2022-08-19T02:58:31;24.10;99.90
9810;DHT22;4944;52.514;13.192;2022-08-19T03:00:58;24.10;99.90
9810;DHT22;4944;52.514;13.192;2022-08-19T03:03:24;24.10;99.90
9810;DHT22;4944;52.514;13.192;2022-08-19T03:06:08;24.10;99.90
9810;DHT22;4944;52.514;13.192;2022-08-19T03:08:38;24.10;99.90
9810;DHT22;4944;52.514;13.192;2022-08-19T03:11:05;24.10;99.90
9810;DHT22;4944;52.514;13.192;2022-08-19T03:13:32;24.10;99.90
9810;DHT22;4944;52.514;13.192;2022-08-19T03:15:59;24.20;99.90
9810;DHT22;4944;52.514;13.192;2022-08-19T03:18:26;24.20;99.90
9810;DHT22;4944;52.514;13.192;2022-08-19T03:20:54;24.20;99.90
9810;DHT22;4944;52.514;13.192;2022-08-19T03:23:22;24.30;99.90
9810;DHT22;4944;52.514;13.192;2022-08-19T03:25:51;24.30;99.90
9810;DHT22;4944;52.514;13.192;2022-08-19T03:28:19;24.30;99.90
9810;DHT22;4944;52.514;13.192;2022-08-19T03:30:55;24.30;99.90
9810;DHT22;4944;52.514;13.192;2022-08-19T03:33:24;24.30;99.90
9810;DHT22;4944;52.514;13.192;2022-08-19T03:36:10;24.40;99.90
9810;DHT22;4944;52.514;13.192;2022-08-19T03:38:41;24.30;99.90
9810;DHT22;4944;52.514;13.192;2022-08-19T03:41:11;24.30;99.90
9810;DHT22;4944;52.514;13.192;2022-08-19T03:43:39;24.30;99.90
9810;DHT22;4944;52.514;13.192;2022-08-19T03:46:12;24.30;99.90
9810;DHT22;4944;52.514;13.192;2022-08-19T03:48:40;24.30;99.90
9810;DHT22;4944;52.514;13.192;2022-08-19T03:51:16;24.30;99.90
9810;DHT22;4944;52.514;13.192;2022-08-19T03:53:43;24.30;99.90
9810;DHT22;4944;52.514;13.192;2022-08-19T03:56:10;24.30;99.90
9810;DHT22;4944;52.514;13.192;2022-08-19T03:58:38;24.30;99.90
9810;DHT22;4944;52.514;13.192;2022-08-19T04:01:07;24.30;99.90
9810;DHT22;4944;52.514;13.192;2022-08-19T04:03:35;24.30;99.90
9810;DHT22;4944;52.514;13.192;2022-08-19T04:06:14;24.30;99.90
9810;DHT22;4944;52.514;13.192;2022-08-19T04:08:42;24.30;99.90
9810;DHT22;4944;52.514;13.192;2022-08-19T04:11:11;24.30;99.90
9810;DHT22;4944;52.514;13.192;2022-08-19T04:13:38;24.30;99.90
9810;DHT22;4944;52.514;13.192;2022-08-19T04:16:06;24.20;99.90
9810;DHT22;4944;52.514;13.192;2022-08-19T04:18:34;24.20;99.90
9810;DHT22;4944;52.514;13.192;2022-08-19T04:21:00;24.10;99.90
9810;DHT22;4944;52.514;13.192;2022-08-19T04:23:32;24.10;99.90
9810;DHT22;4944;52.514;13.192;2022-08-19T04:25:59;24.00;99.90
9810;DHT22;4944;52.514;13.192;2022-08-19T04:28:26;24.00;99.90
9810;DHT22;4944;52.514;13.192;2022-08-19T04:30:54;24.00;99.90
9810;DHT22;4944;52.514;13.192;2022-08-19T04:33:24;24.00;99.90
9810;DHT22;4944;52.514;13.192;2022-08-19T04:35:52;24.00;99.90
9810;DHT22;4944;52.514;13.192;2022-08-19T04:38:21;24.00;99.90
9810;DHT22;4944;52.514;13.192;2022-08-19T04:40:51;24.00;99.90
9810;DHT22;4944;52.514;13.192;2022-08-19T04:43:37;24.00;99.90
9810;DHT22;4944;52.514;13.192;2022-08-19T04:46:07;24.00;99.90
9810;DHT22;4944;52.514;13.192;2022-08-19T04:48:34;24.00;99.90
9810;DHT22;4944;52.514;13.192;2022-08-19T04:51:06;24.00;99.90
9810;DHT22;4944;52.514;13.192;2022-08-19T04:53:36;24.00;99.90
9810;DHT22;4944;52.514;13.192;2022-08-19T04:56:09;24.00;99.90
9810;DHT22;4944;52.514;13.192;2022-08-19T04:58:37;24.10;99.90
9810;DHT22;4944;52.514;13.192;2022-08-19T05:01:04;24.00;99.90
9810;DHT22;4944;52.514;13.192;2022-08-19T05:03:32;24.00;99.90
9810;DHT22;4944;52.514;13.192;2022-08-19T05:06:04;24.00;99.90
9810;DHT22;4944;52.514;13.192;2022-08-19T05:08:33;24.00;99.90
9810;DHT22;4944;52.514;13.192;2022-08-19T05:11:00;24.00;99.90
9810;DHT22;4944;52.514;13.192;2022-08-19T05:13:31;23.90;99.90
9810;DHT22;4944;52.514;13.192;2022-08-19T05:15:59;23.90;99.90
9810;DHT22;4944;52.514;13.192;2022-08-19T05:18:26;23.90;99.90
9810;DHT22;4944;52.514;13.192;2022-08-19T05:21:12;23.90;99.90
9810;DHT22;4944;52.514;13.192;2022-08-19T05:23:57;23.90;99.90
9810;DHT22;4944;52.514;13.192;2022-08-19T05:26:24;23.90;99.90
9810;DHT22;4944;52.514;13.192;2022-08-19T05:28:53;23.90;99.90
9810;DHT22;4944;52.514;13.192;2022-08-19T05:31:21;23.90;99.90
9810;DHT22;4944;52.514;13.192;2022-08-19T05:33:48;23.90;99.90
9810;DHT22;4944;52.514;13.192;2022-08-19T05:36:16;24.00;99.90
9810;DHT22;4944;52.514;13.192;2022-08-19T05:38:45;24.00;99.90
9810;DHT22;4944;52.514;13.192;2022-08-19T05:41:13;24.00;99.90
9810;DHT22;4944;52.514;13.192;2022-08-19T05:43:42;24.00;99.90
9810;DHT22;4944;52.514;13.192;2022-08-19T05:46:16;24.00;99.90
9810;DHT22;4944;52.514;13.192;2022-08-19T05:48:44;24.00;99.90
9810;DHT22;4944;52.514;13.192;2022-08-19T05:51:11;24.10;99.90
9810;DHT22;4944;52.514;13.192;2022-08-19T05:53:38;24.10;99.90
9810;DHT22;4944;52.514;13.192;2022-08-19T05:56:05;24.10;99.90
9810;DHT22;4944;52.514;13.192;2022-08-19T05:58:32;24.10;99.90
9810;DHT22;4944;52.514;13.192;2022-08-19T06:00:59;24.10;99.90
9810;DHT22;4944;52.514;13.192;2022-08-19T06:03:32;24.10;99.90
9810;DHT22;4944;52.514;13.192;2022-08-19T06:06:00;24.00;99.90
9810;DHT22;4944;52.514;13.192;2022-08-19T06:08:29;23.90;99.90
9810;DHT22;4944;52.514;13.192;2022-08-19T06:10:57;23.80;99.90
9810;DHT22;4944;52.514;13.192;2022-08-19T06:13:23;23.90;99.90
9810;DHT22;4944;52.514;13.192;2022-08-19T06:15:51;24.00;99.90
9810;DHT22;4944;52.514;13.192;2022-08-19T06:18:17;24.00;99.90
9810;DHT22;4944;52.514;13.192;2022-08-19T06:20:46;24.00;99.90
9810;DHT22;4944;52.514;13.192;2022-08-19T06:23:14;24.00;99.90
9810;DHT22;4944;52.514;13.192;2022-08-19T06:25:42;24.10;99.90
9810;DHT22;4944;52.514;13.192;2022-08-19T06:28:08;24.10;99.90
9810;DHT22;4944;52.514;13.192;2022-08-19T06:30:36;24.20;99.90
9810;DHT22;4944;52.514;13.192;2022-08-19T06:33:03;24.20;99.90
9810;DHT22;4944;52.514;13.192;2022-08-19T06:35:30;24.20;99.90
9810;DHT22;4944;52.514;13.192;2022-08-19T06:37:58;24.20;99.90
9810;DHT22;4944;52.514;13.192;2022-08-19T06:40:25;24.20;99.90
9810;DHT22;4944;52.514;13.192;2022-08-19T06:42:53;24.20;99.90
9810;DHT22;4944;52.514;13.192;2022-08-19T06:45:21;24.20;99.90
9810;DHT22;4944;52.514;13.192;2022-08-19T06:47:48;24.10;99.90
9810;DHT22;4944;52.514;13.192;2022-08-19T06:50:15;24.20;99.90
9810;DHT22;4944;52.514;13.192;2022-08-19T06:52:41;24.10;99.90
9810;DHT22;4944;52.514;13.192;2022-08-19T06:55:10;24.10;99.90
9810;DHT22;4944;52.514;13.192;2022-08-19T06:57:37;24.20;99.90
9810;DHT22;4944;52.514;13.192;2022-08-19T07:00:05;24.20;99.90
9810;DHT22;4944;52.514;13.192;2022-08-19T07:02:36;24.10;99.90
9810;DHT22;4944;52.514;13.192;2022-08-19T07:05:04;24.20;99.90
9810;DHT22;4944;52.514;13.192;2022-08-19T07:07:31;24.20;99.90
9810;DHT22;4944;52.514;13.192;2022-08-19T07:09:58;24.20;99.90
9810;DHT22;4944;52.514;13.192;2022-08-19T07:12:27;24.20;99.90
9810;DHT22;4944;52.514;13.192;2022-08-19T07:14:54;24.30;99.90
9810;DHT22;4944;52.514;13.192;2022-08-19T07:17:21;24.30;99.90
9810;DHT22;4944;52.514;13.192;2022-08-19T07:19:47;24.20;99.90
9810;DHT22;4944;52.514;13.192;2022-08-19T07:22:16;24.30;99.90
9810;DHT22;4944;52.514;13.192;2022-08-19T07:24:43;24.30;99.90
9810;DHT22;4944;52.514;13.192;2022-08-19T07:27:10;24.30;99.90
9810;DHT22;4944;52.514;13.192;2022-08-19T07:29:38;24.30;99.90
9810;DHT22;4944;52.514;13.192;2022-08-19T07:32:06;24.30;99.90
9810;DHT22;4944;52.514;13.192;2022-08-19T07:34:34;24.30;99.90
9810;DHT22;4944;52.514;13.192;2022-08-19T07:37:03;24.30;99.90
9810;DHT22;4944;52.514;13.192;2022-08-19T07:39:32;24.30;99.90
9810;DHT22;4944;52.514;13.192;2022-08-19T07:42:02;24.20;99.90
9810;DHT22;4944;52.514;13.192;2022-08-19T07:44:31;24.30;99.90
9810;DHT22;4944;52.514;13.192;2022-08-19T07:47:01;24.30;99.90
9810;DHT22;4944;52.514;13.192;2022-08-19T07:49:28;24.20;99.90
9810;DHT22;4944;52.514;13.192;2022-08-19T07:51:57;24.20;99.90
9810;DHT22;4944;52.514;13.192;2022-08-19T07:54:28;24.30;99.90
9810;DHT22;4944;52.514;13.192;2022-08-19T07:56:56;24.30;99.90
9810;DHT22;4944;52.514;13.192;2022-08-19T07:59:24;24.30;99.90
9810;DHT22;4944;52.514;13.192;2022-08-19T08:01:51;24.30;99.90
9810;DHT22;4944;52.514;13.192;2022-08-19T08:04:19;24.30;99.90
9810;DHT22;4944;52.514;13.192;2022-08-19T08:07:05;24.30;99.90
9810;DHT22;4944;52.514;13.192;2022-08-19T08:09:49;24.30;99.90
9810;DHT22;4944;52.514;13.192;2022-08-19T08:12:20;24.30;99.90
9810;DHT22;4944;52.514;13.192;2022-08-19T08:14:52;24.40;99.90
9810;DHT22;4944;52.514;13.192;2022-08-19T08:17:21;24.40;99.90
9810;DHT22;4944;52.514;13.192;2022-08-19T08:19:53;24.40;99.90
9810;DHT22;4944;52.514;13.192;2022-08-19T08:22:21;24.40;99.90
9810;DHT22;4944;52.514;13.192;2022-08-19T08:25:08;24.40;99.90
9810;DHT22;4944;52.514;13.192;2022-08-19T08:27:35;24.30;99.90
9810;DHT22;4944;52.514;13.192;2022-08-19T08:30:05;24.30;99.90
9810;DHT22;4944;52.514;13.192;2022-08-19T08:32:35;24.20;99.90
9810;DHT22;4944;52.514;13.192;2022-08-19T08:35:04;24.20;99.90
9810;DHT22;4944;52.514;13.192;2022-08-19T08:37:31;24.20;99.90
9810;DHT22;4944;52.514;13.192;2022-08-19T08:39:58;24.20;99.90
9810;DHT22;4944;52.514;13.192;2022-08-19T08:42:30;24.10;99.90
9810;DHT22;4944;52.514;13.192;2022-08-19T08:45:03;24.10;99.90
9810;DHT22;4944;52.514;13.192;2022-08-19T08:47:35;24.10;99.90
9810;DHT22;4944;52.514;13.192;2022-08-19T08:50:09;24.10;99.90
9810;DHT22;4944;52.514;13.192;2022-08-19T08:52:44;24.10;99.90
9810;DHT22;4944;52.514;13.192;2022-08-19T08:55:15;24.10;99.90
9810;DHT22;4944;52.514;13.192;2022-08-19T08:57:51;24.10;99.90
9810;DHT22;4944;52.514;13.192;2022-08-19T09:00:23;24.20;99.90
9810;DHT22;4944;52.514;13.192;2022-08-19T09:02:52;24.10;99.90
9810;DHT22;4944;52.514;13.192;2022-08-19T09:05:21;24.10;99.90
9810;DHT22;4944;52.514;13.192;2022-08-19T09:07:54;24.10;99.90
9810;DHT22;4944;52.514;13.192;2022-08-19T09:10:29;24.10;99.90
9810;DHT22;4944;52.514;13.192;2022-08-19T09:13:03;24.10;99.90
9810;DHT22;4944;52.514;13.192;2022-08-19T09:15:39;24.20;99.90
9810;DHT22;4944;52.514;13.192;2022-08-19T09:18:08;24.20;99.90
9810;DHT22;4944;52.514;13.192;2022-08-19T09:20:37;24.20;99.90
9810;DHT22;4944;52.514;13.192;2022-08-19T09:23:03;24.10;99.90
9810;DHT22;4944;52.514;13.192;2022-08-19T09:25:30;24.10;99.90
9810;DHT22;4944;52.514;13.192;2022-08-19T09:28:00;24.10;99.90
9810;DHT22;4944;52.514;13.192;2022-08-19T09:30:31;24.20;99.90
9810;DHT22;4944;52.514;13.192;2022-08-19T09:32:58;24.30;99.90
9810;DHT22;4944;52.514;13.192;2022-08-19T09:35:27;24.30;99.90
9810;DHT22;4944;52.514;13.192;2022-08-19T09:37:56;24.40;99.90
9810;DHT22;4944;52.514;13.192;2022-08-19T09:40:25;24.40;99.90
9810;DHT22;4944;52.514;13.192;2022-08-19T09:42:52;24.40;99.90
9810;DHT22;4944;52.514;13.192;2022-08-19T09:45:21;24.40;99.90
9810;DHT22;4944;52.514;13.192;2022-08-19T09:47:48;24.40;99.90
9810;DHT22;4944;52.514;13.192;2022-08-19T09:50:16;24.40;99.90
9810;DHT22;4944;52.514;13.192;2022-08-19T09:52:44;24.30;99.90
9810;DHT22;4944;52.514;13.192;2022-08-19T09:55:13;24.30;99.90
9810;DHT22;4944;52.514;13.192;2022-08-19T09:57:41;24.30;99.90
9810;DHT22;4944;52.514;13.192;2022-08-19T10:00:09;24.30;99.90
9810;DHT22;4944;52.514;13.192;2022-08-19T10:02:36;24.40;99.90
9810;DHT22;4944;52.514;13.192;2022-08-19T10:05:04;24.40;99.90
9810;DHT22;4944;52.514;13.192;2022-08-19T10:07:49;24.40;99.90
9810;DHT22;4944;52.514;13.192;2022-08-19T10:10:18;24.50;99.90
9810;DHT22;4944;52.514;13.192;2022-08-19T10:12:45;24.50;99.90
9810;DHT22;4944;52.514;13.192;2022-08-19T10:15:12;24.50;99.90
9810;DHT22;4944;52.514;13.192;2022-08-19T10:17:40;24.50;99.90
9810;DHT22;4944;52.514;13.192;2022-08-19T10:20:07;24.50;99.90
9810;DHT22;4944;52.514;13.192;2022-08-19T10:22:34;24.50;99.90
9810;DHT22;4944;52.514;13.192;2022-08-19T10:25:04;24.50;99.90
9810;DHT22;4944;52.514;13.192;2022-08-19T10:27:32;24.40;99.90
9810;DHT22;4944;52.514;13.192;2022-08-19T10:29:59;24.40;99.90
9810;DHT22;4944;52.514;13.192;2022-08-19T10:32:26;24.50;99.90
9810;DHT22;4944;52.514;13.192;2022-08-19T10:34:54;24.50;99.90
9810;DHT22;4944;52.514;13.192;2022-08-19T10:37:22;24.60;99.90
9810;DHT22;4944;52.514;13.192;2022-08-19T10:39:48;24.60;99.90
9810;DHT22;4944;52.514;13.192;2022-08-19T10:42:15;24.60;99.90
9810;DHT22;4944;52.514;13.192;2022-08-19T10:44:45;24.60;99.90
9810;DHT22;4944;52.514;13.192;2022-08-19T10:47:13;24.70;99.90
9810;DHT22;4944;52.514;13.192;2022-08-19T10:49:40;24.70;99.90
9810;DHT22;4944;52.514;13.192;2022-08-19T10:52:21;24.70;99.90
9810;DHT22;4944;52.514;13.192;2022-08-19T10:55:00;24.80;99.90
9810;DHT22;4944;52.514;13.192;2022-08-19T10:57:44;24.80;99.90
9810;DHT22;4944;52.514;13.192;2022-08-19T11:00:13;24.70;99.90
9810;DHT22;4944;52.514;13.192;2022-08-19T11:02:41;24.70;99.90
9810;DHT22;4944;52.514;13.192;2022-08-19T11:05:08;24.60;99.90
9810;DHT22;4944;52.514;13.192;2022-08-19T11:07:36;24.60;99.90
9810;DHT22;4944;52.514;13.192;2022-08-19T11:10:05;24.60;99.90
9810;DHT22;4944;52.514;13.192;2022-08-19T11:12:32;24.60;99.90
9810;DHT22;4944;52.514;13.192;2022-08-19T11:14:59;24.60;99.90
9810;DHT22;4944;52.514;13.192;2022-08-19T11:17:28;24.50;99.90
9810;DHT22;4944;52.514;13.192;2022-08-19T11:19:57;24.60;99.90
9810;DHT22;4944;52.514;13.192;2022-08-19T11:22:24;24.60;99.90
9810;DHT22;4944;52.514;13.192;2022-08-19T11:24:50;24.60;99.90
9810;DHT22;4944;52.514;13.192;2022-08-19T11:27:18;24.60;99.90
9810;DHT22;4944;52.514;13.192;2022-08-19T11:29:44;24.60;99.90
9810;DHT22;4944;52.514;13.192;2022-08-19T11:32:11;24.60;99.90
9810;DHT22;4944;52.514;13.192;2022-08-19T11:34:40;24.60;99.90
9810;DHT22;4944;52.514;13.192;2022-08-19T11:37:07;24.60;99.90
9810;DHT22;4944;52.514;13.192;2022-08-19T11:39:35;24.50;99.90
9810;DHT22;4944;52.514;13.192;2022-08-19T11:42:04;24.60;99.90
9810;DHT22;4944;52.514;13.192;2022-08-19T11:44:52;24.60;99.90
9810;DHT22;4944;52.514;13.192;2022-08-19T11:47:19;24.60;99.90
9810;DHT22;4944;52.514;13.192;2022-08-19T11:49:48;24.60;99.90
9810;DHT22;4944;52.514;13.192;2022-08-19T11:52:14;24.60;99.90
9810;DHT22;4944;52.514;13.192;2022-08-19T11:54:41;24.60;99.90
9810;DHT22;4944;52.514;13.192;2022-08-19T11:57:08;24.60;99.90
9810;DHT22;4944;52.514;13.192;2022-08-19T11:59:35;24.60;99.90
9810;DHT22;4944;52.514;13.192;2022-08-19T12:02:02;24.60;99.90
9810;DHT22;4944;52.514;13.192;2022-08-19T12:04:28;24.60;99.90
9810;DHT22;4944;52.514;13.192;2022-08-19T12:06:57;24.60;99.90
9810;DHT22;4944;52.514;13.192;2022-08-19T12:09:23;24.50;99.90
9810;DHT22;4944;52.514;13.192;2022-08-19T12:11:50;24.50;99.90
9810;DHT22;4944;52.514;13.192;2022-08-19T12:14:17;24.50;99.90
9810;DHT22;4944;52.514;13.192;2022-08-19T12:16:44;24.50;99.90
9810;DHT22;4944;52.514;13.192;2022-08-19T12:19:12;24.50;99.90
9810;DHT22;4944;52.514;13.192;2022-08-19T12:21:38;24.50;99.90
9810;DHT22;4944;52.514;13.192;2022-08-19T12:24:07;24.50;99.90
9810;DHT22;4944;52.514;13.192;2022-08-19T12:26:34;24.50;99.90
9810;DHT22;4944;52.514;13.192;2022-08-19T12:29:02;24.50;99.90
9810;DHT22;4944;52.514;13.192;2022-08-19T12:31:29;24.50;99.90
9810;DHT22;4944;52.514;13.192;2022-08-19T12:33:56;24.50;99.90
9810;DHT22;4944;52.514;13.192;2022-08-19T12:36:24;24.50;99.90
9810;DHT22;4944;52.514;13.192;2022-08-19T12:38:51;24.60;99.90
9810;DHT22;4944;52.514;13.192;2022-08-19T12:41:20;24.60;99.90
9810;DHT22;4944;52.514;13.192;2022-08-19T12:43:47;24.60;99.90
9810;DHT22;4944;52.514;13.192;2022-08-19T12:46:14;24.60;99.90
9810;DHT22;4944;52.514;13.192;2022-08-19T12:48:41;24.60;99.90
9810;DHT22;4944;52.514;13.192;2022-08-19T12:51:12;24.60;99.90
9810;DHT22;4944;52.514;13.192;2022-08-19T12:53:40;24.60;99.90
9810;DHT22;4944;52.514;13.192;2022-08-19T12:56:08;24.60;99.90
9810;DHT22;4944;52.514;13.192;2022-08-19T12:58:38;24.60;99.90
9810;DHT22;4944;52.514;13.192;2022-08-19T13:01:08;24.60;99.90
9810;DHT22;4944;52.514;13.192;2022-08-19T13:03:36;24.60;99.90
9810;DHT22;4944;52.514;13.192;2022-08-19T13:06:06;24.60;99.90
9810;DHT22;4944;52.514;13.192;2022-08-19T13:08:33;24.60;99.90
9810;DHT22;4944;52.514;13.192;2022-08-19T13:11:07;24.60;99.90
9810;DHT22;4944;52.514;13.192;2022-08-19T13:13:34;24.60;99.90
9810;DHT22;4944;52.514;13.192;2022-08-19T13:16:06;24.60;99.90
9810;DHT22;4944;52.514;13.192;2022-08-19T13:18:33;24.70;99.90
9810;DHT22;4944;52.514;13.192;2022-08-19T13:21:04;24.70;99.90
9810;DHT22;4944;52.514;13.192;2022-08-19T13:23:32;24.70;99.90
9810;DHT22;4944;52.514;13.192;2022-08-19T13:26:00;24.70;99.90
9810;DHT22;4944;52.514;13.192;2022-08-19T13:28:30;24.70;99.90
9810;DHT22;4944;52.514;13.192;2022-08-19T13:31:20;24.70;99.90
9810;DHT22;4944;52.514;13.192;2022-08-19T13:34:04;24.70;99.90
9810;DHT22;4944;52.514;13.192;2022-08-19T13:36:32;24.70;99.90
9810;DHT22;4944;52.514;13.192;2022-08-19T13:38:59;24.70;99.90
9810;DHT22;4944;52.514;13.192;2022-08-19T13:41:26;24.70;99.90
9810;DHT22;4944;52.514;13.192;2022-08-19T13:43:53;24.70;99.90
9810;DHT22;4944;52.514;13.192;2022-08-19T13:46:22;24.70;99.90
9810;DHT22;4944;52.514;13.192;2022-08-19T13:48:48;24.70;99.90
9810;DHT22;4944;52.514;13.192;2022-08-19T13:51:16;24.70;99.90
9810;DHT22;4944;52.514;13.192;2022-08-19T13:53:45;24.60;99.90
9810;DHT22;4944;52.514;13.192;2022-08-19T13:56:16;24.70;99.90
9810;DHT22;4944;52.514;13.192;2022-08-19T13:58:44;24.70;99.90
9810;DHT22;4944;52.514;13.192;2022-08-19T14:01:11;24.70;99.90
9810;DHT22;4944;52.514;13.192;2022-08-19T14:03:39;24.80;99.90
9810;DHT22;4944;52.514;13.192;2022-08-19T14:06:06;24.80;99.90
9810;DHT22;4944;52.514;13.192;2022-08-19T14:08:33;24.90;99.90
9810;DHT22;4944;52.514;13.192;2022-08-19T14:11:00;24.90;99.90
9810;DHT22;4944;52.514;13.192;2022-08-19T14:13:27;25.00;99.90
9810;DHT22;4944;52.514;13.192;2022-08-19T14:15:53;24.90;99.90
9810;DHT22;4944;52.514;13.192;2022-08-19T14:18:20;24.90;99.90
9810;DHT22;4944;52.514;13.192;2022-08-19T14:20:48;24.90;99.90
9810;DHT22;4944;52.514;13.192;2022-08-19T14:23:15;24.90;99.90
9810;DHT22;4944;52.514;13.192;2022-08-19T14:25:43;24.90;99.90
9810;DHT22;4944;52.514;13.192;2022-08-19T14:28:10;24.80;99.90
9810;DHT22;4944;52.514;13.192;2022-08-19T14:30:37;24.80;99.90
9810;DHT22;4944;52.514;13.192;2022-08-19T14:33:05;24.80;99.90
9810;DHT22;4944;52.514;13.192;2022-08-19T14:35:33;24.80;99.90
9810;DHT22;4944;52.514;13.192;2022-08-19T14:38:01;24.80;99.90
9810;DHT22;4944;52.514;13.192;2022-08-19T14:40:29;24.60;99.90
9810;DHT22;4944;52.514;13.192;2022-08-19T14:42:58;24.50;99.90
9810;DHT22;4944;52.514;13.192;2022-08-19T14:45:30;24.40;99.90
9810;DHT22;4944;52.514;13.192;2022-08-19T14:47:57;24.40;99.90
9810;DHT22;4944;52.514;13.192;2022-08-19T14:50:26;24.30;99.90
9810;DHT22;4944;52.514;13.192;2022-08-19T14:52:58;24.30;99.90
9810;DHT22;4944;52.514;13.192;2022-08-19T14:55:26;24.20;99.90
9810;DHT22;4944;52.514;13.192;2022-08-19T14:57:53;24.20;99.90
9810;DHT22;4944;52.514;13.192;2022-08-19T15:00:21;24.10;99.90
9810;DHT22;4944;52.514;13.192;2022-08-19T15:02:48;23.90;99.90
9810;DHT22;4944;52.514;13.192;2022-08-19T15:05:16;23.70;99.90
9810;DHT22;4944;52.514;13.192;2022-08-19T15:07:43;23.70;99.90
9810;DHT22;4944;52.514;13.192;2022-08-19T15:10:11;23.60;99.90
9810;DHT22;4944;52.514;13.192;2022-08-19T15:12:39;23.50;99.90
9810;DHT22;4944;52.514;13.192;2022-08-19T15:15:09;23.40;99.90
9810;DHT22;4944;52.514;13.192;2022-08-19T15:17:38;23.30;99.90
9810;DHT22;4944;52.514;13.192;2022-08-19T15:20:07;23.30;99.90
9810;DHT22;4944;52.514;13.192;2022-08-19T15:22:34;23.30;99.90
9810;DHT22;4944;52.514;13.192;2022-08-19T15:25:08;23.30;99.90
9810;DHT22;4944;52.514;13.192;2022-08-19T15:27:35;23.30;99.90
9810;DHT22;4944;52.514;13.192;2022-08-19T15:30:06;23.20;99.90
9810;DHT22;4944;52.514;13.192;2022-08-19T15:32:34;23.10;99.90
9810;DHT22;4944;52.514;13.192;2022-08-19T15:35:01;23.10;99.90
9810;DHT22;4944;52.514;13.192;2022-08-19T15:37:29;23.20;99.90
9810;DHT22;4944;52.514;13.192;2022-08-19T15:39:56;23.20;99.90
9810;DHT22;4944;52.514;13.192;2022-08-19T15:42:23;23.20;99.90
9810;DHT22;4944;52.514;13.192;2022-08-19T15:44:51;23.20;99.90
9810;DHT22;4944;52.514;13.192;2022-08-19T15:47:19;23.30;99.90
9810;DHT22;4944;52.514;13.192;2022-08-19T15:49:46;23.40;99.90
9810;DHT22;4944;52.514;13.192;2022-08-19T15:52:13;23.50;99.90
9810;DHT22;4944;52.514;13.192;2022-08-19T15:54:40;23.60;99.90